Ronald Reagan Washington National Airport
KDCA : now visible

Airfield :











YOU CAN JOIN US ON...

 
LOGIN :

Register | Disclaimer

   EN    FR    IT 

 









Legend :    VFR   Marginal VFR   IFR   Intensive IFR   Very Intensive IFR
Visi :
Ceiling :
>= 8 km
>= 3000ft
5 to 8 km
1000 to 3000 ft
1500m to 5 km
500 to 1000 ft
800 to 1500m
200 to 500 ft
< 800m
< 200 ft
Symbols :   Thunderstorms  Fog  Heavy snow  Heavy precipitations  Wind > 20 kt






- Airport Elevation : 15 ft
- IATA code : DCA


KDCA - Ronald Reagan Washington National

CURRENT METAR :
  • 260501Z 03006KT 4SM +RA BR SCT009 OVC070 16/14 A2961 RMK AO2 PRESFR P0002 T01610144

EXPIRED METARs :
  • 260452Z 02004KT 4SM RA BR FEW007 BKN010 OVC075 16/14 A2963 RMK AO2 SLP032 P0011 T01610144 402670161
  • 260432Z 35003KT 5SM -RA BR BKN010 OVC095 16/14 A2965 RMK AO2 P0004 T01610144
  • 260352Z 36006KT 10SM -RA BKN075 OVC100 17/14 A2966 RMK AO2 SLP042 P0010 T01670144
  • 260252Z 06009KT 6SM RA BR SCT065 OVC075 17/15 A2970 RMK AO2 LTG DSNT S TSE11 SLP056 P0033 60119 T01670150 58011
  • 260225Z 03011KT 3SM +RA BR SCT008 OVC050 17/15 A2972 RMK AO2 LTG DSNT SE TSE11 P0021 T01670150

TAF KDCA
Valid from the 26 at 04:00 until the 27 at 06:00 UTC


260418Z 2604/2706 VRB03KT 4SM -SHRA BR SCT015 BKN060
FM260600 00000KT 6SM BR BKN008 OVC015
TEMPO 2608/2610 SCT008
FM261000 31009KT P6SM FEW015 SCT030
FM261400 31010G25KT P6SM SCT015 BKN025
FM261800 30020G35KT P6SM SCT035 BKN050
KZDC FIR / North America



MET'MAP, your aeronautical weather chart ! - Copyright ORBIFLY December 2007 - Disclaimer

ORBIFLY MET'MAP TEAM :

Programming & Development : Alexandra Zaïnal
Concept & original design : Baudouin d'Aumeries
Assistance for programming : Marc-Olivier Méhu
Technical & hardware support : Manuel Goepfert

Contact : metmap@orbifly.com




SOURCES & CREDITS :

   NOAA       Earth
Advisory